2FD4 weather

Public forecast

Using degrees Fahrenheit for public forecast. Weather courtesy of forecast.io.

Closest aviation weather report (METAR) to Port Everglades Heliport

Closest report is Fort Lauderdale Hollywood International Airport, 2.5 nm (4.7 km) SW. Retrieved 2020/08/10 13:53 UTC (1 hour ago):

KFLL 101353Z 08007KT 10SM SCT023 32/26 A3009 RMK AO2 SLP187 T03170256

Closest aviation forecast (TAF) to Port Everglades Heliport

Closest forecast is Fort Lauderdale Hollywood International Airport, 2.5 nm (4.7 km) SW. Retrieved 2020/08/10 12:26 UTC (3 hours ago):

TAF KFLL 101120Z 1012/1118 12006KT P6SM SCT025 SCT150 FM101700 09006KT P6SM VCTS FEW030CB FEW250 FM110000 09005KT P6SM FEW030 SCT250 FM111500 10008KT P6SM VCTS SCT025CB SCT100